createdAt,value
2022-10-22T00:01:28.615Z,1.80
2022-10-22T00:03:56.730Z,2.30
2022-10-22T00:06:25.131Z,2.07
2022-10-22T00:08:53.736Z,2.20
2022-10-22T00:11:22.225Z,2.90
2022-10-22T00:13:51.807Z,2.30
2022-10-22T00:16:20.095Z,2.10
2022-10-22T00:18:48.486Z,2.43
2022-10-22T00:21:16.779Z,2.30
2022-10-22T00:23:45.284Z,2.47
2022-10-22T00:26:13.710Z,2.30
2022-10-22T00:28:42.096Z,2.00
2022-10-22T00:31:12.008Z,2.40
2022-10-22T00:33:40.226Z,2.90
2022-10-22T00:36:09.495Z,2.00
2022-10-22T00:38:37.731Z,1.90
2022-10-22T00:41:06.136Z,1.90
2022-10-22T00:43:34.390Z,2.53
2022-10-22T00:46:03.382Z,2.00
2022-10-22T00:48:34.485Z,2.60
2022-10-22T00:51:06.232Z,2.27
2022-10-22T00:53:38.983Z,1.77
2022-10-22T00:56:18.385Z,2.00
2022-10-22T00:58:56.366Z,1.63
2022-10-22T01:01:30.502Z,1.67
2022-10-22T01:04:09.299Z,1.50
2022-10-22T01:06:37.567Z,1.73
2022-10-22T01:09:17.831Z,2.10
2022-10-22T01:11:58.773Z,1.40
2022-10-22T01:14:36.509Z,2.17
2022-10-22T01:20:14.946Z,1.50
2022-10-22T01:23:01.081Z,1.73
2022-10-22T01:25:40.260Z,1.50
2022-10-22T01:28:21.441Z,2.00
2022-10-22T01:30:59.141Z,1.87
2022-10-22T01:33:32.906Z,1.73
2022-10-22T01:36:08.178Z,2.23
2022-10-22T01:38:37.541Z,1.60
2022-10-22T01:41:06.162Z,1.50
2022-10-22T01:43:34.386Z,1.57
2022-10-22T01:46:06.354Z,1.60
2022-10-22T01:48:47.339Z,1.67
2022-10-22T01:51:28.387Z,1.80
2022-10-22T01:54:01.931Z,2.63
2022-10-22T01:56:49.275Z,1.80
2022-10-22T01:59:26.160Z,1.97
2022-10-22T02:02:05.164Z,2.40
2022-10-22T02:04:38.505Z,2.03
2022-10-22T02:07:10.088Z,2.20
2022-10-22T02:09:40.633Z,1.80
2022-10-22T02:12:10.575Z,2.53
2022-10-22T02:14:44.176Z,2.23
2022-10-22T02:17:17.573Z,2.20
2022-10-22T02:19:51.698Z,1.70
2022-10-22T02:22:21.098Z,2.50
2022-10-22T02:24:50.200Z,1.80
2022-10-22T02:27:26.864Z,2.50
2022-10-22T02:30:02.822Z,2.17
2022-10-22T02:32:40.347Z,2.73
2022-10-22T02:35:11.513Z,2.03
2022-10-22T02:37:41.249Z,2.00
2022-10-22T02:40:10.447Z,2.37
2022-10-22T02:42:40.322Z,2.27
2022-10-22T02:45:09.174Z,2.27
2022-10-22T02:47:39.186Z,2.10
2022-10-22T02:50:10.321Z,2.20
2022-10-22T02:52:39.738Z,2.20
2022-10-22T02:55:08.928Z,2.07
2022-10-22T02:57:37.600Z,1.87
2022-10-22T03:00:07.752Z,1.90
2022-10-22T03:02:38.541Z,1.90
2022-10-22T03:05:09.401Z,2.10
2022-10-22T03:07:37.905Z,2.13
2022-10-22T03:10:07.103Z,2.40
2022-10-22T03:12:35.302Z,2.37
2022-10-22T03:15:03.526Z,2.07
2022-10-22T03:17:31.689Z,2.00
2022-10-22T03:19:59.978Z,2.30
2022-10-22T03:22:31.681Z,1.87
2022-10-22T03:25:02.638Z,2.40
2022-10-22T03:27:31.753Z,1.93
2022-10-22T03:30:00.765Z,2.43
2022-10-22T03:32:28.991Z,2.30
2022-10-22T03:34:57.223Z,2.30
2022-10-22T03:37:26.535Z,1.80
2022-10-22T03:39:56.667Z,2.00
2022-10-22T03:42:25.525Z,2.03
2022-10-22T03:44:54.032Z,1.80
2022-10-22T03:47:24.447Z,1.90
2022-10-22T03:49:52.802Z,1.73
2022-10-22T03:52:20.980Z,1.70
2022-10-22T03:54:49.239Z,1.93
2022-10-22T03:57:19.581Z,1.83
2022-10-22T03:59:48.596Z,2.00
2022-10-22T04:02:16.769Z,1.93
2022-10-22T04:04:45.107Z,2.00
2022-10-22T04:07:13.252Z,2.00
2022-10-22T04:09:41.495Z,1.80
2022-10-22T04:12:09.752Z,1.90
2022-10-22T04:14:39.286Z,1.83
2022-10-22T04:17:07.536Z,2.17
2022-10-22T04:19:36.228Z,1.90
2022-10-22T04:22:04.566Z,2.03
2022-10-22T04:24:35.517Z,2.00
2022-10-22T04:27:03.992Z,2.03
2022-10-22T04:29:32.289Z,1.57
2022-10-22T04:32:01.839Z,2.00
2022-10-22T04:34:31.439Z,1.77
2022-10-22T04:36:59.678Z,1.80
2022-10-22T04:39:27.892Z,1.50
2022-10-22T04:41:56.244Z,2.53
2022-10-22T04:44:24.438Z,2.03
2022-10-22T04:46:55.081Z,2.17
2022-10-22T04:49:24.926Z,1.90
2022-10-22T04:51:53.102Z,1.93
2022-10-22T04:54:26.634Z,2.03
2022-10-22T04:56:57.072Z,2.40
2022-10-22T04:59:25.346Z,1.60
2022-10-22T05:01:53.524Z,2.10
2022-10-22T05:04:21.834Z,1.83
2022-10-22T05:06:52.128Z,2.10
2022-10-22T05:09:22.224Z,2.70
2022-10-22T05:11:52.882Z,2.07
2022-10-22T05:14:23.351Z,1.77
2022-10-22T05:16:53.005Z,1.83
2022-10-22T05:19:24.005Z,1.90
2022-10-22T05:21:55.431Z,1.37
2022-10-22T05:24:23.793Z,1.53
2022-10-22T05:26:52.872Z,1.80
2022-10-22T05:29:21.597Z,1.73
2022-10-22T05:31:49.814Z,1.80
2022-10-22T05:34:18.339Z,1.97
2022-10-22T05:36:49.294Z,1.87
2022-10-22T05:39:18.817Z,1.50
2022-10-22T05:41:47.100Z,1.77
2022-10-22T05:44:15.330Z,1.87
2022-10-22T05:46:44.275Z,1.70
2022-10-22T05:49:14.889Z,1.53
2022-10-22T05:51:43.108Z,1.43
2022-10-22T05:54:19.254Z,1.67
2022-10-22T05:56:47.567Z,1.73
2022-10-22T05:59:16.020Z,1.67
2022-10-22T06:01:44.384Z,1.90
2022-10-22T06:04:14.145Z,1.70
2022-10-22T06:06:45.266Z,1.60
2022-10-22T06:09:21.124Z,2.13
2022-10-22T06:11:50.794Z,1.87
2022-10-22T06:14:20.260Z,2.47
2022-10-22T06:16:48.943Z,1.73
2022-10-22T06:19:19.680Z,1.47
2022-10-22T06:21:48.577Z,1.80
2022-10-22T06:24:18.638Z,1.67
2022-10-22T06:26:46.930Z,1.70
2022-10-22T06:29:15.175Z,1.63
2022-10-22T06:31:43.401Z,1.67
2022-10-22T06:34:15.865Z,1.60
2022-10-22T06:36:45.913Z,1.63
2022-10-22T06:39:16.238Z,1.73
2022-10-22T06:41:45.915Z,1.57
2022-10-22T06:44:20.427Z,1.70
2022-10-22T06:46:52.092Z,1.70
2022-10-22T06:49:22.137Z,1.80
2022-10-22T06:51:51.465Z,1.67
2022-10-22T06:54:19.678Z,1.90
2022-10-22T06:56:49.529Z,1.70
2022-10-22T06:59:18.001Z,1.97
2022-10-22T07:01:47.089Z,2.30
2022-10-22T07:04:15.849Z,1.83
2022-10-22T07:06:44.020Z,2.07
2022-10-22T07:09:12.395Z,1.50
2022-10-22T07:11:42.928Z,1.70
2022-10-22T07:14:12.882Z,1.27
2022-10-22T07:16:43.123Z,1.57
2022-10-22T07:19:11.341Z,1.70
2022-10-22T07:21:39.840Z,1.60
2022-10-22T07:24:08.749Z,1.50
2022-10-22T07:26:37.664Z,1.57
2022-10-22T07:29:06.462Z,1.70
2022-10-22T07:31:36.597Z,1.93
2022-10-22T07:34:05.051Z,1.60
2022-10-22T07:36:33.273Z,1.83
2022-10-22T07:39:02.679Z,1.67
2022-10-22T07:41:31.584Z,1.57
2022-10-22T07:44:00.188Z,2.10
2022-10-22T07:46:28.713Z,1.90
2022-10-22T07:48:58.493Z,1.77
2022-10-22T07:51:28.091Z,1.43
2022-10-22T07:53:56.302Z,1.50
2022-10-22T07:56:24.579Z,1.87
2022-10-22T07:58:52.918Z,1.90
2022-10-22T08:01:21.232Z,1.90
2022-10-22T08:03:49.932Z,1.87
2022-10-22T08:06:19.538Z,1.43
2022-10-22T08:08:47.721Z,1.70
2022-10-22T08:11:16.312Z,2.13
2022-10-22T08:13:45.830Z,1.40
2022-10-22T08:16:15.609Z,1.77
2022-10-22T08:18:44.187Z,1.57
2022-10-22T08:21:12.485Z,1.50
2022-10-22T08:23:42.038Z,1.20
2022-10-22T08:26:10.439Z,1.40
2022-10-22T08:28:38.818Z,1.80
2022-10-22T08:31:08.501Z,1.60
2022-10-22T08:33:38.775Z,1.60
2022-10-22T08:36:07.985Z,1.90
2022-10-22T08:38:36.705Z,1.47
2022-10-22T08:41:11.138Z,1.60
2022-10-22T08:44:05.433Z,1.80
2022-10-22T08:46:45.977Z,1.70
2022-10-22T08:49:20.258Z,1.43
2022-10-22T08:51:48.756Z,1.83
2022-10-22T08:54:25.035Z,1.80
2022-10-22T08:57:07.845Z,1.75
2022-10-22T08:59:42.170Z,1.73
2022-10-22T09:02:27.140Z,1.90
2022-10-22T09:05:03.330Z,1.65
2022-10-22T09:07:31.712Z,1.33
2022-10-22T09:10:01.593Z,1.30
2022-10-22T09:12:31.300Z,2.03
2022-10-22T09:15:02.216Z,1.33
2022-10-22T09:17:37.016Z,1.60
2022-10-22T09:20:15.949Z,1.75
2022-10-22T09:22:51.600Z,1.48
2022-10-22T09:25:22.212Z,2.03
2022-10-22T09:27:54.382Z,2.28
2022-10-22T09:30:25.628Z,1.70
2022-10-22T09:33:00.342Z,1.50
2022-10-22T09:35:29.210Z,1.27
2022-10-22T09:37:58.139Z,1.33
2022-10-22T09:40:26.412Z,1.30
2022-10-22T09:42:56.028Z,1.40
2022-10-22T09:45:26.751Z,1.25
2022-10-22T09:48:10.721Z,1.38
2022-10-22T09:50:44.274Z,1.23
2022-10-22T09:53:15.883Z,1.17
2022-10-22T09:55:44.650Z,2.45
2022-10-22T09:58:15.348Z,1.30
2022-10-22T10:00:49.524Z,1.13
2022-10-22T10:03:20.583Z,1.40
2022-10-22T10:05:54.079Z,1.27
2022-10-22T10:08:23.523Z,1.75
2022-10-22T10:10:55.140Z,1.42
2022-10-22T10:13:39.375Z,2.10
2022-10-22T10:16:17.129Z,1.63
2022-10-22T10:19:01.603Z,1.83
2022-10-22T10:21:40.810Z,1.90
2022-10-22T10:24:17.855Z,1.70
2022-10-22T10:26:55.897Z,1.50
2022-10-22T10:29:40.437Z,1.65
2022-10-22T10:32:25.152Z,1.40
2022-10-22T10:35:04.352Z,1.77
2022-10-22T10:37:39.976Z,1.50
2022-10-22T10:40:23.002Z,1.50
2022-10-22T10:43:01.398Z,2.05
2022-10-22T10:45:38.206Z,1.48
2022-10-22T10:48:16.582Z,1.73
2022-10-22T10:50:58.010Z,1.70
2022-10-22T10:53:39.988Z,2.03
2022-10-22T10:56:18.037Z,1.90
2022-10-22T10:58:52.977Z,1.50
2022-10-22T11:01:29.051Z,1.90
2022-10-22T11:04:15.222Z,1.50
2022-10-22T11:06:45.531Z,1.45
2022-10-22T11:09:28.539Z,1.75
2022-10-22T11:11:59.301Z,1.70
2022-10-22T11:14:33.492Z,1.45
2022-10-22T11:17:10.284Z,1.98
2022-10-22T11:19:52.960Z,1.60
2022-10-22T11:22:27.675Z,1.77
2022-10-22T11:25:02.433Z,1.85
2022-10-22T11:27:37.108Z,2.30
2022-10-22T11:30:07.683Z,1.65
2022-10-22T11:32:37.462Z,1.40
2022-10-22T11:35:09.207Z,1.48
2022-10-22T11:37:39.534Z,1.30
2022-10-22T11:40:15.971Z,1.88
2022-10-22T11:42:53.175Z,1.60
2022-10-22T11:45:32.893Z,1.95
2022-10-22T11:48:16.034Z,1.67
2022-10-22T11:50:52.992Z,1.60
2022-10-22T11:53:30.689Z,1.23
2022-10-22T11:56:03.925Z,1.60
2022-10-22T11:58:36.202Z,1.60
2022-10-22T12:01:30.459Z,2.00
2022-10-22T12:04:22.542Z,1.38
2022-10-22T12:07:01.732Z,1.30
2022-10-22T12:09:32.802Z,1.77
2022-10-22T12:12:22.175Z,1.52
2022-10-22T12:14:55.768Z,1.55
2022-10-22T12:17:24.905Z,1.60
2022-10-22T12:20:02.216Z,1.20
2022-10-22T12:22:33.283Z,1.95
2022-10-22T12:25:03.201Z,1.50
2022-10-22T12:27:36.785Z,2.10
2022-10-22T12:30:18.941Z,3.15
2022-10-22T12:32:47.201Z,2.22
2022-10-22T12:35:19.941Z,1.65
2022-10-22T12:37:50.872Z,1.80
2022-10-22T12:40:21.722Z,1.70
2022-10-22T12:42:52.362Z,1.48
2022-10-22T12:45:21.581Z,1.50
2022-10-22T12:47:51.816Z,1.58
2022-10-22T12:50:24.407Z,1.98
2022-10-22T12:52:56.203Z,2.25
2022-10-22T12:55:26.984Z,1.42
2022-10-22T12:57:55.370Z,1.48
2022-10-22T13:00:26.301Z,1.55
2022-10-22T13:02:55.769Z,1.85
2022-10-22T13:05:28.042Z,2.13
2022-10-22T13:08:05.123Z,2.00
2022-10-22T13:10:34.918Z,2.20
2022-10-22T13:13:04.070Z,1.50
2022-10-22T13:15:38.304Z,1.27
2022-10-22T13:18:16.060Z,1.50
2022-10-22T13:20:58.907Z,1.20
2022-10-22T13:23:30.046Z,1.27
2022-10-22T13:26:00.503Z,1.10
2022-10-22T13:28:29.903Z,1.45
2022-10-22T13:30:59.234Z,1.10
2022-10-22T13:33:31.496Z,1.00
2022-10-22T13:36:01.190Z,1.30
2022-10-22T13:38:29.851Z,1.33
2022-10-22T13:40:59.331Z,1.52
2022-10-22T13:43:27.800Z,2.97
2022-10-22T13:45:59.128Z,0.95
2022-10-22T13:48:32.583Z,1.00
2022-10-22T13:51:02.308Z,1.00
2022-10-22T13:53:31.974Z,1.17
2022-10-22T13:56:00.262Z,0.75
2022-10-22T13:58:28.589Z,0.98
2022-10-22T14:00:59.029Z,1.20
2022-10-22T14:03:31.280Z,1.13
2022-10-22T14:05:59.638Z,1.00
2022-10-22T14:08:31.673Z,1.40
2022-10-22T14:10:59.927Z,0.90
2022-10-22T14:13:28.342Z,1.00
2022-10-22T14:15:56.625Z,1.00
2022-10-22T14:18:31.552Z,0.90
2022-10-22T14:21:04.825Z,0.82
2022-10-22T14:23:36.830Z,0.85
2022-10-22T14:26:08.867Z,1.05
2022-10-22T14:28:41.382Z,1.30
2022-10-22T14:31:20.252Z,1.05
2022-10-22T14:33:48.876Z,1.15
2022-10-22T14:36:18.891Z,1.10
2022-10-22T14:38:49.689Z,1.00
2022-10-22T14:41:21.658Z,1.20
2022-10-22T14:43:50.977Z,1.15
2022-10-22T14:46:21.055Z,1.15
2022-10-22T14:48:49.610Z,0.90
2022-10-22T14:51:19.471Z,1.40
2022-10-22T14:53:49.784Z,1.02
2022-10-22T14:56:21.254Z,0.93
2022-10-22T14:58:50.131Z,0.77
2022-10-22T15:01:18.649Z,1.15
2022-10-22T15:03:46.892Z,1.48
2022-10-22T15:06:15.049Z,0.90
2022-10-22T15:08:43.500Z,1.25
2022-10-22T15:11:14.091Z,1.30
2022-10-22T15:13:42.356Z,1.10
2022-10-22T15:16:12.572Z,1.17
2022-10-22T15:18:40.699Z,1.42
2022-10-22T15:21:14.464Z,1.38
2022-10-22T15:23:43.160Z,1.23
2022-10-22T15:26:14.076Z,1.30
2022-10-22T15:28:43.354Z,1.30
2022-10-22T15:31:13.818Z,1.38
2022-10-22T15:33:44.464Z,1.60
2022-10-22T15:36:14.693Z,1.50
2022-10-22T15:38:43.266Z,3.38
2022-10-22T15:41:13.989Z,1.70
2022-10-22T15:43:42.186Z,1.70
2022-10-22T15:46:13.655Z,1.52
2022-10-22T15:48:42.421Z,1.60
2022-10-22T15:51:12.049Z,1.58
2022-10-22T15:53:40.333Z,1.67
2022-10-22T15:56:09.548Z,1.70
2022-10-22T15:58:39.149Z,2.30
2022-10-22T16:01:08.471Z,2.05
2022-10-22T16:03:36.970Z,2.05
2022-10-22T16:06:07.171Z,1.90
2022-10-22T16:08:35.873Z,2.80
2022-10-22T16:11:04.595Z,2.25
2022-10-22T16:13:32.929Z,2.17
2022-10-22T16:16:07.038Z,2.13
2022-10-22T16:18:35.519Z,2.20
2022-10-22T16:21:04.902Z,1.90
2022-10-22T16:23:33.117Z,1.88
2022-10-22T16:26:02.906Z,2.17
2022-10-22T16:31:10.595Z,2.35
2022-10-22T16:33:43.031Z,2.10
2022-10-22T16:36:18.943Z,2.08
2022-10-22T16:38:47.791Z,2.33
2022-10-22T16:41:18.507Z,2.22
2022-10-22T16:43:48.456Z,2.40
2022-10-22T16:46:20.253Z,2.00
2022-10-22T16:48:50.065Z,1.77
2022-10-22T16:51:20.427Z,2.22
2022-10-22T16:53:49.495Z,1.80
2022-10-22T16:56:18.862Z,2.40
2022-10-22T16:58:49.736Z,2.30
2022-10-22T17:01:21.166Z,2.30
2022-10-22T17:03:49.597Z,2.58
2022-10-22T17:06:17.747Z,3.13
2022-10-22T17:08:45.936Z,2.30
2022-10-22T17:11:17.330Z,2.63
2022-10-22T17:13:46.904Z,2.60
2022-10-22T17:16:17.436Z,3.07
2022-10-22T17:18:47.941Z,2.93
2022-10-22T17:21:17.101Z,3.38
2022-10-22T17:23:45.656Z,3.77
2022-10-22T17:26:17.472Z,3.73
2022-10-22T17:28:46.189Z,3.47
2022-10-22T17:31:18.853Z,3.80
2022-10-22T17:33:50.897Z,4.40
2022-10-22T17:36:19.659Z,3.87
2022-10-22T17:38:51.499Z,4.10
2022-10-22T17:41:21.940Z,4.80
2022-10-22T17:43:50.238Z,4.80
2022-10-22T17:46:19.951Z,3.97
2022-10-22T17:48:53.065Z,4.37
2022-10-22T17:51:23.039Z,4.20
2022-10-22T17:53:51.497Z,4.93
2022-10-22T17:56:21.122Z,4.17
2022-10-22T17:58:50.014Z,4.20
2022-10-22T18:01:20.964Z,4.73
2022-10-22T18:03:53.343Z,4.50
2022-10-22T18:06:22.008Z,4.10
2022-10-22T18:08:50.437Z,4.30
2022-10-22T18:11:21.209Z,4.73
2022-10-22T18:13:50.313Z,5.67
2022-10-22T18:16:18.907Z,5.77
2022-10-22T18:18:48.438Z,6.20
2022-10-22T18:21:18.665Z,6.47
2022-10-22T18:23:47.523Z,5.40
2022-10-22T18:26:17.910Z,5.43
2022-10-22T18:28:48.754Z,5.40
2022-10-22T18:31:20.227Z,5.20
2022-10-22T18:33:48.898Z,5.50
2022-10-22T18:36:21.490Z,5.67
2022-10-22T18:38:50.932Z,5.50
2022-10-22T18:41:19.394Z,5.40
2022-10-22T18:43:51.699Z,6.03
2022-10-22T18:46:19.985Z,6.30
2022-10-22T18:48:48.361Z,5.77
2022-10-22T18:51:18.365Z,5.30
2022-10-22T18:53:59.061Z,5.30
2022-10-22T18:56:33.906Z,6.00
2022-10-22T18:59:02.189Z,5.70
2022-10-22T19:01:30.581Z,5.43
2022-10-22T19:03:58.973Z,5.07
2022-10-22T19:06:34.562Z,5.60
2022-10-22T19:09:06.074Z,4.60
2022-10-22T19:11:36.522Z,4.47
2022-10-22T19:14:04.849Z,4.63
2022-10-22T19:16:34.792Z,4.30
2022-10-22T19:19:04.994Z,4.90
2022-10-22T19:21:34.903Z,4.23
2022-10-22T19:24:03.176Z,5.00
2022-10-22T19:26:32.035Z,5.53
2022-10-22T19:29:01.133Z,4.87
2022-10-22T19:31:31.293Z,4.70
2022-10-22T19:34:00.578Z,5.63
2022-10-22T19:36:32.643Z,4.33
2022-10-22T19:39:03.642Z,4.40
2022-10-22T19:41:32.937Z,4.73
2022-10-22T19:44:01.864Z,4.80
2022-10-22T19:46:32.559Z,4.60
2022-10-22T19:49:00.979Z,4.10
2022-10-22T19:51:31.447Z,4.60
2022-10-22T19:54:01.140Z,5.47
2022-10-22T19:56:31.345Z,4.70
2022-10-22T19:58:59.889Z,4.70
2022-10-22T20:01:28.727Z,5.00
2022-10-22T20:03:56.943Z,5.07
2022-10-22T20:06:25.235Z,5.37
2022-10-22T20:08:56.032Z,5.03
2022-10-22T20:11:27.005Z,5.37
2022-10-22T20:13:57.610Z,5.00
2022-10-22T20:16:28.564Z,5.43
2022-10-22T20:19:00.453Z,5.47
2022-10-22T20:21:29.089Z,5.93
2022-10-22T20:23:57.656Z,6.00
2022-10-22T20:26:28.195Z,7.90
2022-10-22T20:28:59.227Z,7.20
2022-10-22T20:31:30.057Z,8.53
2022-10-22T20:33:59.519Z,7.83
2022-10-22T20:36:31.154Z,7.53
2022-10-22T20:39:02.129Z,6.00
2022-10-22T20:41:30.831Z,7.87
2022-10-22T20:44:00.642Z,6.80
2022-10-22T20:46:30.784Z,6.57
2022-10-22T20:49:02.385Z,5.90
2022-10-22T20:51:30.733Z,5.53
2022-10-22T20:53:58.941Z,6.33
2022-10-22T20:56:28.008Z,6.33
2022-10-22T20:59:04.465Z,5.87
2022-10-22T21:01:36.738Z,5.20
2022-10-22T21:04:05.563Z,5.70
2022-10-22T21:06:37.846Z,5.60
2022-10-22T21:09:07.102Z,4.97
2022-10-22T21:11:35.845Z,5.97
2022-10-22T21:14:04.870Z,5.47
2022-10-22T21:16:34.863Z,5.30
2022-10-22T21:19:03.334Z,5.30
2022-10-22T21:21:31.670Z,5.40
2022-10-22T21:23:59.908Z,4.60
2022-10-22T21:26:28.467Z,6.00
2022-10-22T21:28:56.729Z,5.30
2022-10-22T21:31:26.279Z,5.00
2022-10-22T21:33:55.987Z,5.00
2022-10-22T21:36:25.085Z,5.50
2022-10-22T21:38:53.837Z,5.57
2022-10-22T21:41:23.890Z,4.93
2022-10-22T21:43:52.903Z,4.60
2022-10-22T21:46:23.197Z,4.87
2022-10-22T21:48:56.208Z,5.03
2022-10-22T21:51:25.580Z,4.90
2022-10-22T21:53:54.769Z,5.87
2022-10-22T21:56:24.323Z,5.17
2022-10-22T21:58:52.779Z,4.83
2022-10-22T22:01:21.392Z,4.50
2022-10-22T22:03:50.923Z,5.00
2022-10-22T22:06:25.647Z,4.67
2022-10-22T22:08:56.466Z,5.27
2022-10-22T22:11:27.000Z,5.07
2022-10-22T22:13:58.236Z,5.07
2022-10-22T22:16:29.362Z,5.70
2022-10-22T22:18:58.976Z,5.30
2022-10-22T22:21:29.690Z,5.33
2022-10-22T22:24:01.017Z,5.10
2022-10-22T22:26:32.719Z,5.20
2022-10-22T22:29:01.669Z,4.77
2022-10-22T22:31:33.642Z,5.00
2022-10-22T22:34:03.857Z,5.23
2022-10-22T22:36:37.002Z,5.20
2022-10-22T22:39:06.490Z,5.57
2022-10-22T22:41:35.140Z,5.00
2022-10-22T22:44:03.530Z,5.87
2022-10-22T22:46:31.914Z,5.30
2022-10-22T22:49:00.204Z,5.80
2022-10-22T22:51:28.812Z,5.70
2022-10-22T22:54:00.229Z,5.80
2022-10-22T22:56:30.278Z,6.33
2022-10-22T22:58:59.217Z,6.40
2022-10-22T23:01:29.058Z,5.60
2022-10-22T23:03:58.730Z,5.60
2022-10-22T23:06:28.691Z,5.03
2022-10-22T23:08:57.373Z,5.10
2022-10-22T23:11:28.797Z,5.40
2022-10-22T23:13:59.399Z,5.50
2022-10-22T23:16:30.392Z,5.03
2022-10-22T23:18:59.326Z,5.23
2022-10-22T23:21:29.819Z,5.40
2022-10-22T23:24:00.018Z,5.10
2022-10-22T23:26:31.294Z,4.50
2022-10-22T23:29:01.761Z,5.10
2022-10-22T23:31:30.157Z,5.23
2022-10-22T23:33:58.585Z,4.67
2022-10-22T23:36:27.182Z,5.37
2022-10-22T23:38:55.672Z,4.73
2022-10-22T23:41:24.109Z,4.90
2022-10-22T23:43:55.894Z,4.20
2022-10-22T23:46:24.151Z,4.90
2022-10-22T23:48:53.744Z,4.53
2022-10-22T23:51:22.659Z,4.57
2022-10-22T23:53:55.829Z,4.20
2022-10-22T23:56:24.045Z,4.23
2022-10-22T23:58:54.535Z,4.60
